Time;durP1;ratioP1;P1;durP2;ratioP2;P2;SDS_P1;SDS_P2;PMS_P1;PMS_P2;Temp;Humidity;BMP_temperature;BMP_pressure;BME280_temperature;BME280_humidity;BME280_pressure;Samples;Min_cycle;Max_cycle;Signal;HPM_P1;HPM_P2
2023/12/30 00:00:22;;;;;;;1.63;0.98;;;;;;;;;;5070465;28;20059;-79
2023/12/30 00:02:48;;;;;;;1.50;1.40;;;;;;;;;;5071003;28;20090;-80
2023/12/30 00:05:15;;;;;;;2.25;0.82;;;;;;;;;;5056921;28;20427;-79
2023/12/30 00:07:46;;;;;;;1.25;0.95;;;;;;;;;;5070180;28;20032;-81
2023/12/30 00:10:12;;;;;;;1.25;1.20;;;;;;;;;;5071396;28;20033;-80
2023/12/30 00:12:37;;;;;;;1.13;0.98;;;;;;;;;;5070346;28;20025;-79
2023/12/30 00:15:03;;;;;;;5.47;1.17;;;;;;;;;;5053429;28;20055;-79
2023/12/30 00:17:29;;;;;;;1.48;0.98;;;;;;;;;;5071149;28;20044;-80
2023/12/30 00:19:54;;;;;;;0.40;0.40;;;;;;;;;;5073305;28;20063;-81
2023/12/30 00:22:20;;;;;;;0.82;0.68;;;;;;;;;;5069353;28;20024;-79
2023/12/30 00:24:45;;;;;;;0.82;0.50;;;;;;;;;;5069288;28;20028;-80
2023/12/30 00:27:11;;;;;;;0.98;0.70;;;;;;;;;;5068947;28;20054;-80
2023/12/30 00:29:40;;;;;;;0.90;0.90;;;;;;;;;;5069618;28;20028;-79
2023/12/30 00:32:06;;;;;;;1.77;0.98;;;;;;;;;;5068916;28;20029;-81
2023/12/30 00:34:36;;;;;;;1.55;1.15;;;;;;;;;;5071616;28;20032;-80
2023/12/30 00:37:01;;;;;;;0.45;0.45;;;;;;;;;;5051285;28;20036;-82
2023/12/30 00:39:27;;;;;;;0.70;0.70;;;;;;;;;;5070926;28;20036;-81
2023/12/30 00:41:52;;;;;;;1.90;1.33;;;;;;;;;;5067102;28;20020;-80
2023/12/30 00:44:18;;;;;;;0.88;0.82;;;;;;;;;;5052304;28;20061;-82
2023/12/30 00:46:43;;;;;;;1.73;1.10;;;;;;;;;;5070888;28;20115;-81
2023/12/30 00:49:09;;;;;;;1.88;0.95;;;;;;;;;;5073995;28;20031;-80
2023/12/30 00:51:36;;;;;;;0.38;0.38;;;;;;;;;;5072829;28;20020;-81
2023/12/30 00:54:04;;;;;;;2.80;1.10;;;;;;;;;;5074462;28;20105;-81
2023/12/30 00:56:37;;;;;;;0.98;0.93;;;;;;;;;;5058131;28;20020;-80
2023/12/30 00:59:02;;;;;;;2.15;1.17;;;;;;;;;;5071753;28;20028;-81
2023/12/30 01:01:28;;;;;;;0.85;0.60;;;;;;;;;;5055201;28;20086;-81
2023/12/30 01:03:56;;;;;;;1.58;0.95;;;;;;;;;;5074576;28;20082;-81
2023/12/30 01:06:21;;;;;;;2.15;1.17;;;;;;;;;;5073195;28;20028;-80
2023/12/30 01:08:47;;;;;;;1.73;1.17;;;;;;;;;;5075913;28;20036;-80
2023/12/30 01:11:12;;;;;;;0.98;0.98;;;;;;;;;;5073028;28;20027;-81
2023/12/30 01:13:38;;;;;;;0.60;0.57;;;;;;;;;;5056231;28;20032;-81
2023/12/30 01:16:05;;;;;;;1.02;0.93;;;;;;;;;;5072689;28;20152;-79
2023/12/30 01:18:30;;;;;;;1.25;1.10;;;;;;;;;;5070901;28;20032;-80
2023/12/30 01:20:56;;;;;;;1.55;0.93;;;;;;;;;;5053638;28;20036;-80
2023/12/30 01:23:21;;;;;;;1.67;1.48;;;;;;;;;;5075582;28;20107;-81
2023/12/30 01:25:47;;;;;;;1.13;0.85;;;;;;;;;;5072495;28;20059;-80
2023/12/30 01:28:12;;;;;;;0.43;0.43;;;;;;;;;;5073800;28;20059;-80
2023/12/30 01:30:38;;;;;;;0.40;0.40;;;;;;;;;;5071076;28;20067;-79
2023/12/30 01:33:04;;;;;;;0.63;0.63;;;;;;;;;;5054397;28;20055;-80
2023/12/30 01:35:30;;;;;;;0.98;0.80;;;;;;;;;;5074132;28;20032;-78
2023/12/30 01:37:55;;;;;;;1.45;1.20;;;;;;;;;;5073436;28;20062;-80
2023/12/30 01:40:21;;;;;;;0.35;0.35;;;;;;;;;;5070858;28;20050;-80
2023/12/30 01:42:48;;;;;;;1.85;0.65;;;;;;;;;;5056462;28;20036;-82
2023/12/30 01:45:14;;;;;;;1.25;1.15;;;;;;;;;;5072354;28;20434;-81
2023/12/30 01:47:42;;;;;;;4.20;1.63;;;;;;;;;;5073238;28;20036;-81
2023/12/30 01:50:09;;;;;;;1.13;1.02;;;;;;;;;;5071099;28;20035;-82
2023/12/30 01:52:38;;;;;;;0.82;0.75;;;;;;;;;;5073283;28;20399;-80
2023/12/30 01:55:06;;;;;;;0.70;0.70;;;;;;;;;;5072902;28;20028;-81
2023/12/30 01:57:31;;;;;;;5.40;0.82;;;;;;;;;;5053562;28;20040;-79
2023/12/30 01:59:58;;;;;;;1.35;0.75;;;;;;;;;;5070004;28;20605;-80
2023/12/30 02:02:23;;;;;;;0.50;0.50;;;;;;;;;;5054797;28;20036;-82
2023/12/30 02:04:49;;;;;;;4.00;1.15;;;;;;;;;;5072237;28;20404;-80
2023/12/30 02:07:15;;;;;;;1.73;1.20;;;;;;;;;;5054207;28;20373;-80
2023/12/30 02:09:40;;;;;;;2.03;1.45;;;;;;;;;;5071244;28;20036;-80
2023/12/30 02:12:06;;;;;;;2.50;2.17;;;;;;;;;;5069959;28;20020;-79
2023/12/30 02:14:33;;;;;;;3.15;2.17;;;;;;;;;;5072501;28;20029;-82
2023/12/30 02:16:58;;;;;;;1.58;1.20;;;;;;;;;;5071779;28;20037;-79
2023/12/30 02:19:24;;;;;;;1.67;1.58;;;;;;;;;;5056682;28;20434;-80
2023/12/30 02:21:51;;;;;;;1.58;1.08;;;;;;;;;;5070688;28;20032;-80
2023/12/30 02:24:17;;;;;;;1.92;1.67;;;;;;;;;;5071427;28;20388;-81
2023/12/30 02:26:42;;;;;;;2.20;1.33;;;;;;;;;;5057444;28;20036;-82
2023/12/30 02:29:08;;;;;;;1.10;1.00;;;;;;;;;;5052472;28;20028;-80
2023/12/30 02:31:35;;;;;;;0.70;0.70;;;;;;;;;;5072343;28;20429;-82
2023/12/30 02:34:00;;;;;;;0.77;0.77;;;;;;;;;;5074372;28;20024;-82
2023/12/30 02:36:28;;;;;;;3.80;1.05;;;;;;;;;;5073590;28;20035;-81
2023/12/30 02:38:54;;;;;;;1.65;0.77;;;;;;;;;;5073074;28;20078;-80
2023/12/30 02:41:19;;;;;;;0.73;0.73;;;;;;;;;;5053081;28;20032;-80
2023/12/30 02:44:00;;;;;;;1.55;0.90;;;;;;;;;;5072162;28;20029;-81
2023/12/30 02:46:28;;;;;;;1.25;1.20;;;;;;;;;;5071567;28;20389;-81
2023/12/30 02:48:53;;;;;;;1.33;1.23;;;;;;;;;;5053085;28;20032;-82
2023/12/30 02:51:19;;;;;;;1.30;0.85;;;;;;;;;;5051507;28;20107;-80
2023/12/30 02:53:45;;;;;;;2.35;1.58;;;;;;;;;;5070429;28;20040;-81
2023/12/30 02:56:24;;;;;;;1.27;0.88;;;;;;;;;;5071266;28;20032;-81
2023/12/30 02:58:52;;;;;;;;;;;;;;;;;;5070145;28;20129;-80
2023/12/30 03:01:18;;;;;;;0.43;0.43;;;;;;;;;;5072561;28;19920;-82
2023/12/30 03:03:43;;;;;;;0.90;0.90;;;;;;;;;;5072340;28;20032;-81
2023/12/30 03:06:12;;;;;;;0.95;0.95;;;;;;;;;;5056662;28;20031;-81
2023/12/30 03:08:37;;;;;;;0.90;0.70;;;;;;;;;;5070976;28;20043;-81
2023/12/30 03:11:03;;;;;;;3.30;1.05;;;;;;;;;;5070414;28;20029;-82
2023/12/30 03:13:31;;;;;;;2.08;1.73;;;;;;;;;;5071486;28;20118;-81
2023/12/30 03:15:57;;;;;;;1.58;1.10;;;;;;;;;;5071692;28;20053;-81
2023/12/30 03:18:22;;;;;;;1.83;1.38;;;;;;;;;;5051909;28;20434;-82
2023/12/30 03:20:48;;;;;;;1.38;1.27;;;;;;;;;;5054791;28;20028;-81
2023/12/30 03:23:16;;;;;;;1.65;0.63;;;;;;;;;;5073532;28;20089;-80
2023/12/30 03:25:41;;;;;;;0.60;0.60;;;;;;;;;;5072427;28;20028;-80
2023/12/30 03:28:07;;;;;;;0.82;0.82;;;;;;;;;;5054729;28;22432;-80
2023/12/30 03:30:35;;;;;;;1.23;1.13;;;;;;;;;;5070100;28;20074;-81
2023/12/30 03:33:01;;;;;;;2.15;1.00;;;;;;;;;;5069418;28;20116;-82
2023/12/30 03:35:26;;;;;;;2.40;0.90;;;;;;;;;;5054056;28;20099;-81
2023/12/30 03:37:52;;;;;;;0.85;0.85;;;;;;;;;;5071796;28;20083;-79
2023/12/30 03:40:17;;;;;;;1.55;1.45;;;;;;;;;;5054042;28;20035;-80
2023/12/30 03:42:48;;;;;;;1.55;0.85;;;;;;;;;;5070843;28;20024;-79
2023/12/30 03:45:13;;;;;;;0.50;0.50;;;;;;;;;;5069421;28;20099;-80
2023/12/30 03:47:48;;;;;;;1.15;1.00;;;;;;;;;;5052914;28;20127;-81
2023/12/30 03:50:13;;;;;;;1.80;1.20;;;;;;;;;;5068106;28;20115;-81
2023/12/30 03:52:39;;;;;;;2.45;2.10;;;;;;;;;;5067666;28;20112;-82
2023/12/30 03:55:10;;;;;;;1.17;1.10;;;;;;;;;;5066487;28;20028;-81
2023/12/30 03:57:36;;;;;;;2.75;0.98;;;;;;;;;;5068578;28;20040;-81
2023/12/30 04:00:04;;;;;;;0.85;0.50;;;;;;;;;;5069786;28;20052;-81
2023/12/30 04:02:30;;;;;;;1.75;0.77;;;;;;;;;;5053568;28;20032;-81
2023/12/30 04:04:56;;;;;;;1.02;0.90;;;;;;;;;;5068621;28;20036;-81
2023/12/30 04:07:21;;;;;;;1.70;1.33;;;;;;;;;;5068837;28;20839;-81
2023/12/30 04:09:47;;;;;;;1.33;1.15;;;;;;;;;;5051470;28;20480;-81
2023/12/30 04:12:12;;;;;;;1.45;0.65;;;;;;;;;;5070529;28;20030;-81
2023/12/30 04:14:38;;;;;;;0.75;0.75;;;;;;;;;;5068532;28;20498;-81
2023/12/30 04:17:03;;;;;;;0.63;0.57;;;;;;;;;;5052612;28;20052;-81
2023/12/30 04:19:29;;;;;;;0.95;0.80;;;;;;;;;;5071974;28;20059;-80
2023/12/30 04:21:54;;;;;;;0.85;0.75;;;;;;;;;;5070866;28;20020;-80
2023/12/30 04:24:21;;;;;;;0.98;0.90;;;;;;;;;;5074889;28;20060;-81
2023/12/30 04:26:49;;;;;;;0.43;0.43;;;;;;;;;;5078379;28;20407;-80
2023/12/30 04:29:15;;;;;;;2.63;1.08;;;;;;;;;;5076588;28;20082;-81
2023/12/30 04:31:43;;;;;;;2.90;1.35;;;;;;;;;;5073966;28;20384;-81
2023/12/30 04:34:09;;;;;;;0.88;0.85;;;;;;;;;;5073732;28;20115;-80
2023/12/30 04:36:35;;;;;;;0.57;0.57;;;;;;;;;;5057905;28;20115;-80
2023/12/30 04:39:01;;;;;;;1.85;1.23;;;;;;;;;;5074747;28;20131;-81
2023/12/30 04:41:32;;;;;;;1.30;1.20;;;;;;;;;;5072256;28;20033;-81
2023/12/30 04:43:58;;;;;;;0.40;0.40;;;;;;;;;;5075896;28;20108;-80
2023/12/30 04:46:23;;;;;;;0.90;0.73;;;;;;;;;;5059028;28;20135;-80
2023/12/30 04:48:52;;;;;;;1.65;1.08;;;;;;;;;;5078518;28;20033;-82
2023/12/30 04:51:18;;;;;;;0.63;0.63;;;;;;;;;;5076823;28;20422;-81
2023/12/30 04:53:44;;;;;;;4.28;2.08;;;;;;;;;;5075844;28;20032;-82
2023/12/30 04:56:19;;;;;;;3.05;1.30;;;;;;;;;;5073386;28;20399;-80
2023/12/30 04:58:44;;;;;;;2.15;1.35;;;;;;;;;;5073194;28;20028;-80
2023/12/30 05:01:11;;;;;;;0.95;0.85;;;;;;;;;;5075590;28;20041;-80
2023/12/30 05:03:37;;;;;;;1.13;1.05;;;;;;;;;;5074898;28;20029;-80
2023/12/30 05:06:02;;;;;;;0.73;0.73;;;;;;;;;;5074189;28;20506;-81
2023/12/30 05:08:29;;;;;;;0.40;0.40;;;;;;;;;;5072624;28;20028;-78
2023/12/30 05:10:54;;;;;;;0.50;0.50;;;;;;;;;;5073911;28;20024;-79
2023/12/30 05:13:22;;;;;;;0.55;0.55;;;;;;;;;;5072369;28;20032;-80
2023/12/30 05:15:50;;;;;;;0.77;0.60;;;;;;;;;;5073373;28;20043;-80
2023/12/30 05:18:16;;;;;;;0.60;0.60;;;;;;;;;;5072701;28;20060;-80
2023/12/30 05:20:41;;;;;;;1.25;1.15;;;;;;;;;;5074737;28;20106;-81
2023/12/30 05:23:07;;;;;;;1.20;0.98;;;;;;;;;;5074156;28;20472;-80
2023/12/30 05:25:33;;;;;;;0.93;0.93;;;;;;;;;;5074286;28;20073;-79
2023/12/30 05:27:58;;;;;;;0.85;0.63;;;;;;;;;;5073430;28;20028;-81
2023/12/30 05:30:24;;;;;;;1.05;0.95;;;;;;;;;;5074118;28;20043;-80
2023/12/30 05:32:49;;;;;;;1.00;0.60;;;;;;;;;;5073519;28;20130;-79
2023/12/30 05:35:15;;;;;;;0.57;0.57;;;;;;;;;;5069511;28;20035;-81
2023/12/30 05:37:40;;;;;;;4.45;2.03;;;;;;;;;;5070537;28;20025;-82
2023/12/30 05:40:08;;;;;;;16.50;1.10;;;;;;;;;;5053053;28;20468;-82
2023/12/30 05:42:34;;;;;;;1.23;1.13;;;;;;;;;;5070449;28;20119;-82
2023/12/30 05:44:59;;;;;;;0.82;0.73;;;;;;;;;;5051365;28;20191;-83
2023/12/30 05:47:25;;;;;;;0.90;0.47;;;;;;;;;;5070610;28;20029;-81
2023/12/30 05:49:50;;;;;;;1.42;1.05;;;;;;;;;;5052531;28;20107;-80
2023/12/30 05:52:16;;;;;;;0.63;0.63;;;;;;;;;;5068947;28;20068;-80
2023/12/30 05:54:45;;;;;;;0.45;0.45;;;;;;;;;;5068772;28;20051;-79
2023/12/30 05:57:13;;;;;;;1.33;1.33;;;;;;;;;;5068934;28;20032;-79
2023/12/30 05:59:41;;;;;;;0.40;0.40;;;;;;;;;;5051974;28;20444;-81
2023/12/30 06:02:07;;;;;;;0.60;0.60;;;;;;;;;;5069968;28;20029;-82
2023/12/30 06:04:33;;;;;;;0.85;0.85;;;;;;;;;;5069399;28;20116;-81
2023/12/30 06:06:58;;;;;;;1.10;1.00;;;;;;;;;;5069596;28;20032;-81
2023/12/30 06:09:23;;;;;;;0.30;0.30;;;;;;;;;;5067976;28;20027;-82
2023/12/30 06:11:52;;;;;;;0.75;0.75;;;;;;;;;;5072059;28;20476;-82
2023/12/30 06:14:17;;;;;;;1.05;0.65;;;;;;;;;;5070342;28;20028;-82
2023/12/30 06:16:43;;;;;;;2.70;1.60;;;;;;;;;;5069791;28;20047;-82
2023/12/30 06:19:08;;;;;;;0.50;0.47;;;;;;;;;;5069002;28;20034;-82
2023/12/30 06:21:33;;;;;;;0.45;0.45;;;;;;;;;;5069403;28;20029;-82
2023/12/30 06:23:59;;;;;;;1.45;1.08;;;;;;;;;;5068964;28;20055;-81
2023/12/30 06:26:24;;;;;;;2.70;2.22;;;;;;;;;;5071135;28;21062;-82
2023/12/30 06:28:50;;;;;;;3.17;1.70;;;;;;;;;;5066778;28;20059;-80
2023/12/30 06:31:15;;;;;;;0.95;0.95;;;;;;;;;;5052769;28;20070;-80
2023/12/30 06:33:41;;;;;;;2.20;1.15;;;;;;;;;;5069797;28;20044;-82
2023/12/30 06:36:07;;;;;;;1.38;1.15;;;;;;;;;;5069774;28;20732;-81
2023/12/30 06:38:32;;;;;;;0.77;0.77;;;;;;;;;;5050353;28;20526;-78
2023/12/30 06:40:57;;;;;;;5.95;0.68;;;;;;;;;;5067193;28;20035;-81
2023/12/30 06:43:23;;;;;;;2.30;1.17;;;;;;;;;;5068701;28;20465;-79
2023/12/30 06:45:48;;;;;;;1.75;1.27;;;;;;;;;;5067527;28;20046;-79
2023/12/30 06:48:16;;;;;;;1.70;1.45;;;;;;;;;;5069147;28;20029;-79
2023/12/30 06:50:41;;;;;;;2.10;1.73;;;;;;;;;;5067920;28;20104;-79
2023/12/30 06:53:07;;;;;;;0.73;0.73;;;;;;;;;;5048785;28;20115;-80
2023/12/30 06:55:32;;;;;;;4.75;1.85;;;;;;;;;;5068320;28;20028;-81
2023/12/30 06:57:58;;;;;;;1.25;1.15;;;;;;;;;;5069518;28;20067;-82
2023/12/30 07:00:23;;;;;;;1.33;1.23;;;;;;;;;;5068873;28;20020;-81
2023/12/30 07:02:49;;;;;;;0.88;0.88;;;;;;;;;;5069111;28;20048;-80
2023/12/30 07:05:14;;;;;;;1.95;1.85;;;;;;;;;;5068751;28;20115;-78
2023/12/30 07:07:39;;;;;;;3.35;1.50;;;;;;;;;;5051497;28;20036;-82
2023/12/30 07:10:05;;;;;;;0.65;0.65;;;;;;;;;;5067630;28;20017;-79
2023/12/30 07:12:31;;;;;;;1.77;1.35;;;;;;;;;;5065094;28;20036;-78
2023/12/30 07:14:57;;;;;;;0.90;0.85;;;;;;;;;;5066218;28;20080;-80
2023/12/30 07:17:23;;;;;;;2.75;1.15;;;;;;;;;;5068211;28;20051;-79
2023/12/30 07:19:48;;;;;;;7.95;1.80;;;;;;;;;;5069333;28;20602;-82
2023/12/30 07:22:15;;;;;;;4.18;2.90;;;;;;;;;;5068506;28;20112;-79
2023/12/30 07:24:40;;;;;;;2.67;1.08;;;;;;;;;;5068620;28;20028;-79
2023/12/30 07:27:05;;;;;;;7.60;3.78;;;;;;;;;;5068850;28;20035;-79
2023/12/30 07:29:31;;;;;;;4.28;2.38;;;;;;;;;;5068943;28;20028;-78
2023/12/30 07:31:56;;;;;;;5.32;3.75;;;;;;;;;;5068014;28;20028;-79
2023/12/30 07:34:22;;;;;;;3.95;2.88;;;;;;;;;;5068690;28;20100;-79
2023/12/30 07:36:48;;;;;;;4.75;3.15;;;;;;;;;;5068795;28;20047;-79
2023/12/30 07:39:13;;;;;;;3.95;3.25;;;;;;;;;;5067600;28;20379;-79
2023/12/30 07:41:39;;;;;;;3.17;1.85;;;;;;;;;;5068286;28;20032;-80
2023/12/30 07:44:04;;;;;;;5.28;3.30;;;;;;;;;;5066594;28;20078;-79
2023/12/30 07:46:30;;;;;;;4.90;2.42;;;;;;;;;;5067684;28;20020;-79
2023/12/30 07:48:55;;;;;;;5.00;2.00;;;;;;;;;;5050470;28;20027;-80
2023/12/30 07:51:21;;;;;;;3.60;3.30;;;;;;;;;;5067518;28;20375;-80
2023/12/30 07:53:46;;;;;;;4.50;3.25;;;;;;;;;;5049057;28;20607;-80
2023/12/30 07:56:12;;;;;;;2.45;2.00;;;;;;;;;;5070411;28;20032;-79
2023/12/30 07:58:39;;;;;;;3.10;2.75;;;;;;;;;;5066174;28;20024;-79
2023/12/30 08:01:08;;;;;;;3.25;2.30;;;;;;;;;;5068247;28;20021;-80
2023/12/30 08:03:33;;;;;;;2.60;1.75;;;;;;;;;;5067702;28;20074;-78
2023/12/30 08:05:58;;;;;;;2.38;2.03;;;;;;;;;;5069672;28;20024;-78
2023/12/30 08:08:24;;;;;;;3.13;2.05;;;;;;;;;;5068751;28;20031;-80
2023/12/30 08:10:49;;;;;;;3.58;2.65;;;;;;;;;;5069398;28;20028;-78
2023/12/30 08:13:16;;;;;;;2.35;2.15;;;;;;;;;;5069540;28;20032;-78
2023/12/30 08:15:41;;;;;;;2.72;2.35;;;;;;;;;;5068088;28;20045;-79
2023/12/30 08:18:07;;;;;;;3.45;2.97;;;;;;;;;;5069258;28;20090;-79
2023/12/30 08:20:32;;;;;;;3.30;3.10;;;;;;;;;;5069442;28;20438;-79
2023/12/30 08:22:58;;;;;;;4.07;2.53;;;;;;;;;;5046742;28;20377;-79
2023/12/30 08:25:23;;;;;;;8.68;5.13;;;;;;;;;;5069610;28;20119;-78
2023/12/30 08:27:48;;;;;;;5.75;3.03;;;;;;;;;;5070440;28;20461;-79
2023/12/30 08:30:14;;;;;;;4.35;3.30;;;;;;;;;;5069605;28;20024;-78
2023/12/30 08:32:39;;;;;;;3.95;3.08;;;;;;;;;;5068762;28;20028;-79
2023/12/30 08:35:07;;;;;;;2.72;2.15;;;;;;;;;;5067640;28;20035;-79
2023/12/30 08:37:33;;;;;;;3.22;2.95;;;;;;;;;;5068202;28;20028;-79
2023/12/30 08:39:59;;;;;;;2.60;2.40;;;;;;;;;;5067170;28;20483;-79
2023/12/30 08:42:24;;;;;;;4.03;3.03;;;;;;;;;;5067706;28;20029;-79
2023/12/30 08:44:50;;;;;;;4.93;2.85;;;;;;;;;;5067407;28;20032;-79
2023/12/30 08:47:16;;;;;;;6.50;3.55;;;;;;;;;;5067355;28;20020;-78
2023/12/30 08:49:42;;;;;;;5.47;3.65;;;;;;;;;;5049363;28;20036;-80
2023/12/30 08:52:08;;;;;;;5.15;3.15;;;;;;;;;;5067508;28;20526;-79
2023/12/30 08:54:33;;;;;;;6.47;3.45;;;;;;;;;;5066477;28;20064;-80
2023/12/30 08:56:59;;;;;;;5.57;3.53;;;;;;;;;;5068733;28;20028;-80
2023/12/30 08:59:25;;;;;;;8.93;4.30;;;;;;;;;;5068619;28;20024;-82
2023/12/30 09:01:51;;;;;;;5.32;4.78;;;;;;;;;;5069653;28;20033;-80
2023/12/30 09:04:18;;;;;;;7.57;5.10;;;;;;;;;;5069328;28;20094;-81
2023/12/30 09:06:43;;;;;;;6.57;5.30;;;;;;;;;;5069596;28;20029;-81
2023/12/30 09:09:09;;;;;;;6.88;5.25;;;;;;;;;;5070418;28;20024;-81
2023/12/30 09:11:37;;;;;;;6.65;5.00;;;;;;;;;;5053494;28;20043;-81
2023/12/30 09:14:06;;;;;;;5.60;3.80;;;;;;;;;;5072466;28;20029;-81
2023/12/30 09:16:32;;;;;;;6.77;4.23;;;;;;;;;;5054641;28;20041;-81
2023/12/30 09:18:58;;;;;;;4.90;3.45;;;;;;;;;;5073947;28;20030;-80
2023/12/30 09:21:24;;;;;;;5.47;4.32;;;;;;;;;;5055475;28;20056;-81
2023/12/30 09:23:50;;;;;;;6.32;4.00;;;;;;;;;;5072894;28;20028;-80
2023/12/30 09:26:16;;;;;;;7.72;3.88;;;;;;;;;;5072603;28;20025;-81
2023/12/30 09:28:41;;;;;;;8.13;4.60;;;;;;;;;;5072427;28;20065;-81
2023/12/30 09:31:07;;;;;;;5.13;4.63;;;;;;;;;;5073071;28;20021;-80
2023/12/30 09:33:32;;;;;;;7.95;5.10;;;;;;;;;;5072542;28;20036;-82
2023/12/30 09:35:58;;;;;;;5.80;4.30;;;;;;;;;;5070298;28;20074;-81
2023/12/30 09:38:24;;;;;;;5.00;4.28;;;;;;;;;;5071995;28;20054;-80
2023/12/30 09:40:54;;;;;;;6.40;4.75;;;;;;;;;;5070885;28;20558;-82
2023/12/30 09:43:23;;;;;;;4.50;2.53;;;;;;;;;;5071407;28;20052;-80
2023/12/30 09:45:51;;;;;;;9.02;5.53;;;;;;;;;;5072337;28;20063;-80
2023/12/30 09:48:19;;;;;;;6.65;5.28;;;;;;;;;;5073385;28;20021;-80
2023/12/30 09:50:45;;;;;;;7.65;3.75;;;;;;;;;;5072117;28;20020;-82
2023/12/30 09:53:10;;;;;;;6.60;3.75;;;;;;;;;;5072284;28;20046;-83
2023/12/30 09:55:36;;;;;;;6.22;3.97;;;;;;;;;;5054389;28;20825;-82
2023/12/30 09:58:01;;;;;;;6.32;4.60;;;;;;;;;;5054845;28;20032;-81
2023/12/30 10:00:28;;;;;;;12.63;4.13;;;;;;;;;;5072625;28;20024;-82
2023/12/30 10:02:54;;;;;;;13.77;5.40;;;;;;;;;;5071559;28;20081;-79
2023/12/30 10:05:19;;;;;;;5.93;3.75;;;;;;;;;;5072220;28;20055;-80
2023/12/30 10:07:46;;;;;;;4.20;3.78;;;;;;;;;;5071311;28;20040;-81
2023/12/30 10:10:11;;;;;;;4.90;3.60;;;;;;;;;;5072190;28;20020;-80
2023/12/30 10:12:36;;;;;;;4.88;3.88;;;;;;;;;;5055247;28;20073;-80
2023/12/30 10:15:03;;;;;;;5.68;4.53;;;;;;;;;;5070358;28;20024;-79
2023/12/30 10:17:29;;;;;;;6.15;3.63;;;;;;;;;;5052471;28;20036;-80
2023/12/30 10:19:54;;;;;;;7.30;5.35;;;;;;;;;;5071556;28;20428;-80
2023/12/30 10:22:20;;;;;;;5.05;4.32;;;;;;;;;;5068357;28;20060;-80
2023/12/30 10:24:46;;;;;;;7.25;3.63;;;;;;;;;;5069855;28;20488;-80
2023/12/30 10:27:11;;;;;;;8.02;3.13;;;;;;;;;;5071189;28;20042;-79
2023/12/30 10:29:38;;;;;;;5.03;4.00;;;;;;;;;;5071036;28;20459;-80
2023/12/30 10:32:04;;;;;;;7.72;5.25;;;;;;;;;;5070634;28;20369;-80
2023/12/30 10:34:31;;;;;;;3.80;2.92;;;;;;;;;;5069754;28;20032;-80
2023/12/30 10:36:59;;;;;;;8.18;5.22;;;;;;;;;;5052490;28;20120;-80
2023/12/30 10:39:25;;;;;;;7.07;4.78;;;;;;;;;;5069486;28;20050;-81
2023/12/30 10:41:51;;;;;;;5.60;3.22;;;;;;;;;;5050912;28;20555;-81
2023/12/30 10:44:17;;;;;;;8.40;4.95;;;;;;;;;;5070196;28;20086;-82
2023/12/30 10:46:48;;;;;;;6.03;3.58;;;;;;;;;;5051411;28;20079;-78
2023/12/30 10:49:15;;;;;;;7.68;4.53;;;;;;;;;;5068269;28;20097;-78
2023/12/30 10:51:43;;;;;;;5.30;4.13;;;;;;;;;;5050570;28;20059;-79
2023/12/30 10:54:19;;;;;;;7.88;2.95;;;;;;;;;;5069345;28;20028;-81
2023/12/30 10:56:50;;;;;;;6.82;4.82;;;;;;;;;;5049257;28;20086;-79
2023/12/30 10:59:18;;;;;;;10.93;3.88;;;;;;;;;;5067086;28;20023;-80
2023/12/30 11:01:44;;;;;;;8.93;4.00;;;;;;;;;;5048228;28;20032;-80
2023/12/30 11:04:14;;;;;;;10.23;5.65;;;;;;;;;;5069315;28;20033;-82
2023/12/30 11:06:56;;;;;;;9.32;5.50;;;;;;;;;;5050306;28;20036;-80
2023/12/30 11:09:36;;;;;;;6.95;4.65;;;;;;;;;;5068577;28;20063;-81
2023/12/30 11:12:02;;;;;;;13.85;7.57;;;;;;;;;;5069375;28;20107;-84
2023/12/30 11:14:31;;;;;;;10.70;5.95;;;;;;;;;;5070204;28;20035;-81
2023/12/30 11:16:57;;;;;;;6.10;4.40;;;;;;;;;;5069147;28;20037;-81
2023/12/30 11:19:36;;;;;;;9.82;5.03;;;;;;;;;;5052334;28;20028;-81
2023/12/30 11:22:05;;;;;;;8.30;4.93;;;;;;;;;;5069522;28;20388;-79
2023/12/30 11:24:34;;;;;;;10.35;6.05;;;;;;;;;;5068371;28;20036;-82
2023/12/30 11:27:02;;;;;;;12.68;5.10;;;;;;;;;;5050644;28;20477;-81
2023/12/30 11:29:34;;;;;;;10.73;5.97;;;;;;;;;;5069411;28;20036;-81
2023/12/30 11:32:00;;;;;;;18.00;8.05;;;;;;;;;;5050504;28;20074;-82
2023/12/30 11:34:29;;;;;;;10.52;6.18;;;;;;;;;;5069955;28;20035;-84
2023/12/30 11:37:04;;;;;;;7.60;5.40;;;;;;;;;;5070224;28;20024;-82
2023/12/30 11:39:38;;;;;;;8.23;7.43;;;;;;;;;;5069919;28;20032;-82
2023/12/30 11:42:29;;;;;;;7.95;6.47;;;;;;;;;;5051081;28;20035;-81
2023/12/30 11:45:04;;;;;;;13.40;7.28;;;;;;;;;;5050251;28;20044;-82
2023/12/30 11:47:36;;;;;;;14.23;8.38;;;;;;;;;;5069796;28;20990;-79
2023/12/30 11:50:07;;;;;;;12.98;7.22;;;;;;;;;;5071435;28;20024;-79
2023/12/30 11:52:36;;;;;;;12.45;7.45;;;;;;;;;;5070353;28;20028;-82
2023/12/30 11:55:04;;;;;;;13.98;7.10;;;;;;;;;;5069091;28;20047;-80
2023/12/30 11:57:33;;;;;;;13.73;7.65;;;;;;;;;;5068880;28;20043;-80
2023/12/30 11:59:59;;;;;;;17.00;8.27;;;;;;;;;;5068105;28;20130;-80
2023/12/30 12:02:47;;;;;;;10.50;8.05;;;;;;;;;;5067905;28;20719;-81
2023/12/30 12:05:16;;;;;;;15.00;8.40;;;;;;;;;;5053224;28;20218;-81
2023/12/30 12:07:41;;;;;;;14.68;9.40;;;;;;;;;;5071506;28;20043;-79
2023/12/30 12:10:07;;;;;;;20.23;8.68;;;;;;;;;;5070701;28;20396;-80
2023/12/30 12:12:37;;;;;;;8.23;7.38;;;;;;;;;;5069144;28;20158;-79
2023/12/30 12:15:04;;;;;;;15.55;8.13;;;;;;;;;;5051295;28;20077;-80
2023/12/30 12:17:30;;;;;;;10.02;7.63;;;;;;;;;;5070630;28;20050;-81
2023/12/30 12:19:56;;;;;;;11.65;6.97;;;;;;;;;;5069486;28;20119;-79
2023/12/30 12:22:22;;;;;;;14.57;7.75;;;;;;;;;;5072282;28;20059;-81
2023/12/30 12:24:48;;;;;;;21.13;7.78;;;;;;;;;;5068628;28;20078;-80
2023/12/30 12:27:23;;;;;;;12.80;7.68;;;;;;;;;;5065889;28;20032;-80
2023/12/30 12:29:50;;;;;;;10.88;7.75;;;;;;;;;;5064391;28;20059;-81
2023/12/30 12:32:20;;;;;;;9.43;7.05;;;;;;;;;;5068233;28;20024;-81
2023/12/30 12:34:49;;;;;;;12.55;8.23;;;;;;;;;;5052002;28;20507;-80
2023/12/30 12:37:18;;;;;;;13.60;6.95;;;;;;;;;;5064009;28;20037;-80
2023/12/30 12:39:45;;;;;;;12.68;7.45;;;;;;;;;;5063446;28;20356;-80
2023/12/30 12:42:11;;;;;;;18.65;8.77;;;;;;;;;;5049679;28;20081;-81
2023/12/30 12:44:38;;;;;;;10.88;7.97;;;;;;;;;;5070322;28;20040;-80
2023/12/30 12:47:09;;;;;;;10.38;5.35;;;;;;;;;;5055558;28;20031;-79
2023/12/30 12:49:41;;;;;;;11.88;6.22;;;;;;;;;;5075430;28;20406;-81
2023/12/30 12:52:08;;;;;;;8.10;7.03;;;;;;;;;;5074942;28;20056;-80
2023/12/30 12:54:34;;;;;;;18.70;8.65;;;;;;;;;;5054145;28;20024;-79
2023/12/30 12:57:03;;;;;;;9.32;7.55;;;;;;;;;;5073816;28;20031;-82
2023/12/30 12:59:28;;;;;;;9.40;6.40;;;;;;;;;;5073369;28;20046;-80
2023/12/30 13:01:54;;;;;;;10.43;8.07;;;;;;;;;;5055420;28;20043;-80
2023/12/30 13:04:30;;;;;;;16.40;6.22;;;;;;;;;;5056563;28;20036;-79
2023/12/30 13:07:06;;;;;;;10.45;5.55;;;;;;;;;;5074858;28;20082;-81
2023/12/30 13:09:36;;;;;;;9.75;5.22;;;;;;;;;;5072547;28;20096;-80
2023/12/30 13:12:02;;;;;;;;;;;;;;;;;;5057592;28;20115;-79
2023/12/30 13:14:34;;;;;;;3.72;2.13;;;;;;;;;;5073791;28;19912;-82
2023/12/30 13:17:01;;;;;;;2.00;1.00;;;;;;;;;;5072590;28;20396;-79
2023/12/30 13:19:27;;;;;;;3.90;2.42;;;;;;;;;;5073054;28;20445;-79
2023/12/30 13:21:53;;;;;;;2.65;1.77;;;;;;;;;;5072403;28;20032;-81
2023/12/30 13:24:19;;;;;;;8.02;2.15;;;;;;;;;;5075168;28;20181;-80
2023/12/30 13:26:46;;;;;;;2.42;2.22;;;;;;;;;;5054782;28;20119;-81
2023/12/30 13:29:12;;;;;;;1.92;1.30;;;;;;;;;;5054677;28;20028;-83
2023/12/30 13:31:43;;;;;;;5.88;1.23;;;;;;;;;;5052648;28;20040;-82
2023/12/30 13:34:13;;;;;;;3.85;1.50;;;;;;;;;;5069774;28;20029;-84
2023/12/30 13:36:41;;;;;;;2.63;1.80;;;;;;;;;;5055188;28;20028;-85
2023/12/30 13:39:08;;;;;;;3.08;2.17;;;;;;;;;;5054329;28;20040;-83
2023/12/30 13:41:35;;;;;;;6.18;1.75;;;;;;;;;;5070305;28;20016;-83
2023/12/30 13:44:05;;;;;;;3.80;2.05;;;;;;;;;;5072761;28;20024;-81
2023/12/30 13:51:45;;;;;;;2.10;1.77;;;;;;;;;;5073174;28;20029;-82
2023/12/30 13:54:11;;;;;;;3.63;2.13;;;;;;;;;;5073065;28;20479;-80
2023/12/30 13:56:41;;;;;;;2.58;1.58;;;;;;;;;;5072721;28;20032;-80
2023/12/30 13:59:11;;;;;;;3.58;1.80;;;;;;;;;;5073033;28;20028;-80
2023/12/30 14:01:37;;;;;;;4.03;2.67;;;;;;;;;;5075392;28;20020;-81
2023/12/30 14:04:05;;;;;;;11.60;4.93;;;;;;;;;;5054946;28;20027;-81
2023/12/30 14:06:39;;;;;;;3.35;3.05;;;;;;;;;;5070334;28;20032;-83
2023/12/30 14:11:57;;;;;;;5.45;3.85;;;;;;;;;;5069396;28;20031;-80
2023/12/30 14:14:22;;;;;;;7.28;2.92;;;;;;;;;;5069714;28;20077;-80
2023/12/30 14:16:47;;;;;;;7.28;4.25;;;;;;;;;;5069072;28;20048;-81
2023/12/30 14:19:14;;;;;;;5.30;4.18;;;;;;;;;;5071721;28;20135;-80
2023/12/30 14:21:39;;;;;;;7.20;4.18;;;;;;;;;;5069741;28;20038;-79
2023/12/30 14:24:05;;;;;;;3.60;2.10;;;;;;;;;;5070415;28;20490;-79
2023/12/30 14:26:30;;;;;;;4.25;2.90;;;;;;;;;;5069276;28;20034;-79
2023/12/30 14:28:56;;;;;;;8.93;3.60;;;;;;;;;;5069744;28;20070;-79
2023/12/30 14:31:21;;;;;;;11.23;3.92;;;;;;;;;;5068203;28;20063;-79
2023/12/30 14:33:49;;;;;;;7.05;4.63;;;;;;;;;;5070857;28;20077;-82
2023/12/30 14:36:16;;;;;;;3.85;3.38;;;;;;;;;;5070870;28;20078;-81
2023/12/30 14:38:41;;;;;;;2.10;1.30;;;;;;;;;;5071001;28;20041;-78
2023/12/30 14:41:07;;;;;;;6.78;2.03;;;;;;;;;;5069734;28;20429;-81
2023/12/30 14:43:32;;;;;;;4.13;1.88;;;;;;;;;;5069182;28;20448;-80
2023/12/30 14:45:57;;;;;;;2.38;2.05;;;;;;;;;;5069401;28;20024;-79
2023/12/30 14:48:23;;;;;;;5.95;2.40;;;;;;;;;;5052589;28;20427;-81